ICE24TQ GCFV-LEZL
Flight info
| Callsign | ICE24TQ |
|---|---|
| Flight time | N/A |
| Altitude | 36000 |
| Route | KORAL UN871 SONSO DCT NIRAL UN871 ADUBI DCT VJF |
| Aircraft | B38M/M-SDE1FGHILORVWXY/HB1 |
Departure
| Time | N/A |
|---|---|
| Airport | Fuerteventura Airport (GCFV) |
Arrival
| Time | 2026-04-14 16:15 |
|---|---|
| Airport | Seville Airport (LEZL) |
| Time | Latitude | Longitude | Altitude | Speed | Heading |
|---|---|---|---|---|---|
| 2026-04-14 14:41 | 29.13775 | -13.15505 | 25361 ft | 438 kts | 45° |
| 2026-04-14 14:42 | 29.15904 | -13.12976 | 25707 ft | 442 kts | 45° |
| 2026-04-14 14:42 | 29.18014 | -13.10465 | 26155 ft | 444 kts | 44° |
| 2026-04-14 14:42 | 29.20172 | -13.07896 | 26501 ft | 447 kts | 45° |
| 2026-04-14 14:42 | 29.22336 | -13.05319 | 26862 ft | 451 kts | 45° |
| 2026-04-14 14:43 | 29.24521 | -13.02716 | 27288 ft | 452 kts | 45° |
| 2026-04-14 14:43 | 29.26710 | -13.00105 | 27593 ft | 457 kts | 45° |
| 2026-04-14 14:43 | 29.28892 | -12.97501 | 27995 ft | 458 kts | 44° |
| 2026-04-14 14:43 | 29.31116 | -12.94847 | 28318 ft | 462 kts | 45° |
| 2026-04-14 14:44 | 29.33342 | -12.92186 | 28744 ft | 463 kts | 45° |
| 2026-04-14 14:44 | 29.35592 | -12.89495 | 29055 ft | 466 kts | 45° |
| 2026-04-14 14:44 | 29.37837 | -12.86809 | 29437 ft | 469 kts | 45° |
| 2026-04-14 14:44 | 29.40103 | -12.84096 | 29777 ft | 471 kts | 45° |
| 2026-04-14 14:45 | 29.42356 | -12.81395 | 30066 ft | 475 kts | 45° |
| 2026-04-14 14:45 | 29.44646 | -12.78650 | 30422 ft | 476 kts | 45° |
| 2026-04-14 14:45 | 29.46943 | -12.75894 | 30679 ft | 479 kts | 45° |
| 2026-04-14 14:45 | 29.49224 | -12.73153 | 31013 ft | 480 kts | 45° |
| 2026-04-14 14:46 | 29.51574 | -12.70332 | 31287 ft | 482 kts | 45° |
| 2026-04-14 14:46 | 29.53867 | -12.67574 | 31554 ft | 485 kts | 45° |
| 2026-04-14 14:46 | 29.56206 | -12.64760 | 31867 ft | 486 kts | 45° |
| 2026-04-14 14:46 | 29.58548 | -12.61941 | 32101 ft | 489 kts | 45° |
| 2026-04-14 14:47 | 29.60902 | -12.59104 | 32465 ft | 489 kts | 45° |
| 2026-04-14 14:47 | 29.63253 | -12.56268 | 32807 ft | 489 kts | 45° |
| 2026-04-14 14:47 | 29.65596 | -12.53441 | 33170 ft | 490 kts | 45° |
| 2026-04-14 14:47 | 29.67916 | -12.50639 | 33572 ft | 488 kts | 45° |
| 2026-04-14 14:48 | 29.70264 | -12.47801 | 33910 ft | 488 kts | 46° |
| 2026-04-14 14:48 | 29.72601 | -12.44974 | 34327 ft | 486 kts | 45° |
| 2026-04-14 14:48 | 29.74933 | -12.42152 | 34653 ft | 485 kts | 45° |
| 2026-04-14 14:48 | 29.77258 | -12.39336 | 34942 ft | 485 kts | 45° |
| 2026-04-14 14:49 | 29.79577 | -12.36527 | 35295 ft | 482 kts | 45° |
| 2026-04-14 14:49 | 29.81889 | -12.33723 | 35550 ft | 483 kts | 45° |
| 2026-04-14 14:49 | 29.84166 | -12.30957 | 35884 ft | 481 kts | 45° |
| 2026-04-14 14:49 | 29.86464 | -12.28168 | 36091 ft | 481 kts | 44° |
| 2026-04-14 14:50 | 29.88768 | -12.25367 | 36128 ft | 481 kts | 45° |
| 2026-04-14 14:50 | 29.93353 | -12.19788 | 36130 ft | 478 kts | 45° |
| 2026-04-14 14:51 | 29.97928 | -12.14213 | 36121 ft | 478 kts | 45° |
| 2026-04-14 14:51 | 30.02562 | -12.08788 | 36139 ft | 476 kts | 41° |
| 2026-04-14 14:52 | 30.07354 | -12.03472 | 36125 ft | 476 kts | 41° |
| 2026-04-14 14:52 | 30.12074 | -11.98188 | 36113 ft | 475 kts | 41° |
| 2026-04-14 14:53 | 30.16823 | -11.92865 | 36106 ft | 476 kts | 43° |
| 2026-04-14 14:53 | 30.21579 | -11.87525 | 36111 ft | 476 kts | 42° |
| 2026-04-14 14:54 | 30.26300 | -11.82220 | 36117 ft | 476 kts | 43° |
| 2026-04-14 14:54 | 30.31054 | -11.76868 | 36121 ft | 476 kts | 42° |
| 2026-04-14 14:55 | 30.35802 | -11.71515 | 36118 ft | 475 kts | 42° |
| 2026-04-14 14:55 | 30.40551 | -11.66154 | 36112 ft | 476 kts | 41° |
| 2026-04-14 14:56 | 30.47631 | -11.58147 | 36113 ft | 475 kts | 43° |
| 2026-04-14 14:56 | 30.52376 | -11.52772 | 36111 ft | 475 kts | 41° |
| 2026-04-14 14:57 | 30.57092 | -11.47420 | 36111 ft | 476 kts | 42° |
| 2026-04-14 14:57 | 30.61807 | -11.42063 | 36108 ft | 476 kts | 41° |
| 2026-04-14 14:58 | 30.66543 | -11.36675 | 36111 ft | 477 kts | 42° |
| 2026-04-14 14:58 | 30.71290 | -11.31265 | 36127 ft | 476 kts | 42° |
| 2026-04-14 14:59 | 30.75978 | -11.25916 | 36125 ft | 473 kts | 42° |
| 2026-04-14 14:59 | 30.80691 | -11.20530 | 36119 ft | 474 kts | 43° |
| 2026-04-14 15:00 | 30.85403 | -11.15135 | 36112 ft | 474 kts | 41° |
| 2026-04-14 15:00 | 30.90086 | -11.09768 | 36107 ft | 475 kts | 42° |
| 2026-04-14 15:01 | 30.94810 | -11.04347 | 36107 ft | 476 kts | 43° |
| 2026-04-14 15:01 | 30.99497 | -10.98959 | 36114 ft | 475 kts | 43° |
| 2026-04-14 15:02 | 31.04211 | -10.93533 | 36114 ft | 474 kts | 42° |
| 2026-04-14 15:02 | 31.08895 | -10.88132 | 36114 ft | 470 kts | 41° |
| 2026-04-14 15:03 | 31.13528 | -10.82782 | 36105 ft | 470 kts | 41° |
| 2026-04-14 15:03 | 31.18191 | -10.77390 | 36104 ft | 471 kts | 42° |
| 2026-04-14 15:04 | 31.22827 | -10.72022 | 36101 ft | 471 kts | 42° |
| 2026-04-14 15:04 | 31.27485 | -10.66620 | 36104 ft | 472 kts | 41° |
| 2026-04-14 15:05 | 31.32120 | -10.61240 | 36117 ft | 471 kts | 43° |
| 2026-04-14 15:05 | 31.36785 | -10.55813 | 36125 ft | 471 kts | 43° |
| 2026-04-14 15:06 | 31.41379 | -10.50463 | 36106 ft | 466 kts | 41° |
| 2026-04-14 15:06 | 31.45986 | -10.45086 | 36114 ft | 467 kts | 41° |
| 2026-04-14 15:07 | 31.50596 | -10.39701 | 36101 ft | 467 kts | 42° |
| 2026-04-14 15:07 | 31.55175 | -10.34343 | 36111 ft | 468 kts | 41° |
| 2026-04-14 15:08 | 31.59793 | -10.28935 | 36115 ft | 468 kts | 43° |
| 2026-04-14 15:08 | 31.64371 | -10.23563 | 36118 ft | 468 kts | 41° |
| 2026-04-14 15:09 | 31.68978 | -10.18150 | 36137 ft | 467 kts | 43° |
| 2026-04-14 15:09 | 31.73548 | -10.12772 | 36126 ft | 464 kts | 41° |
| 2026-04-14 15:10 | 31.78092 | -10.07414 | 36108 ft | 464 kts | 41° |
| 2026-04-14 15:10 | 31.82654 | -10.02030 | 36128 ft | 464 kts | 42° |
| 2026-04-14 15:11 | 31.87224 | -9.96627 | 36109 ft | 465 kts | 41° |
| 2026-04-14 15:11 | 31.91755 | -9.91265 | 36125 ft | 465 kts | 43° |
| 2026-04-14 15:12 | 31.96330 | -9.85841 | 36133 ft | 465 kts | 42° |
| 2026-04-14 15:12 | 32.00854 | -9.80468 | 36123 ft | 462 kts | 41° |
| 2026-04-14 15:13 | 32.05374 | -9.75093 | 36127 ft | 461 kts | 41° |
| 2026-04-14 15:13 | 32.09131 | -9.70620 | 36133 ft | 461 kts | 43° |
| 2026-04-14 15:14 | 32.13650 | -9.65229 | 36125 ft | 461 kts | 41° |
| 2026-04-14 15:14 | 32.18146 | -9.59862 | 36125 ft | 461 kts | 41° |
| 2026-04-14 15:15 | 32.22663 | -9.54457 | 36126 ft | 461 kts | 43° |
| 2026-04-14 15:15 | 32.27181 | -9.49047 | 36137 ft | 462 kts | 42° |
| 2026-04-14 15:16 | 32.31658 | -9.43677 | 36145 ft | 460 kts | 43° |
| 2026-04-14 15:16 | 32.36152 | -9.38277 | 36132 ft | 458 kts | 43° |
| 2026-04-14 15:17 | 32.40626 | -9.32895 | 36144 ft | 458 kts | 42° |
| 2026-04-14 15:17 | 32.45075 | -9.27533 | 36144 ft | 459 kts | 43° |
| 2026-04-14 15:18 | 32.49553 | -9.22128 | 36138 ft | 458 kts | 42° |
| 2026-04-14 15:18 | 32.54026 | -9.16722 | 36152 ft | 458 kts | 42° |
| 2026-04-14 15:19 | 32.58459 | -9.11354 | 36147 ft | 458 kts | 43° |
| 2026-04-14 15:19 | 32.62922 | -9.05945 | 36158 ft | 457 kts | 43° |
| 2026-04-14 15:20 | 32.67365 | -9.00551 | 36154 ft | 456 kts | 43° |
| 2026-04-14 15:20 | 32.71772 | -8.95192 | 36155 ft | 456 kts | 43° |
| 2026-04-14 15:21 | 32.76205 | -8.89795 | 36157 ft | 456 kts | 43° |
| 2026-04-14 15:21 | 32.80642 | -8.84383 | 36157 ft | 456 kts | 43° |
| 2026-04-14 15:22 | 32.85055 | -8.78992 | 36177 ft | 456 kts | 43° |
| 2026-04-14 15:22 | 32.89477 | -8.73582 | 36161 ft | 455 kts | 42° |
| 2026-04-14 15:23 | 32.93882 | -8.68187 | 36163 ft | 453 kts | 43° |
| 2026-04-14 15:23 | 32.98236 | -8.62846 | 36166 ft | 452 kts | 43° |
| 2026-04-14 15:24 | 33.02627 | -8.57453 | 36164 ft | 452 kts | 43° |
| 2026-04-14 15:24 | 33.06993 | -8.52082 | 36166 ft | 452 kts | 43° |
| 2026-04-14 15:25 | 33.11375 | -8.46682 | 36168 ft | 452 kts | 43° |
| 2026-04-14 15:25 | 33.15757 | -8.41275 | 36168 ft | 452 kts | 43° |
| 2026-04-14 15:26 | 33.20283 | -8.36138 | 36152 ft | 446 kts | 29° |
| 2026-04-14 15:26 | 33.25575 | -8.32298 | 36156 ft | 445 kts | 29° |
| 2026-04-14 15:27 | 33.30800 | -8.28357 | 36177 ft | 444 kts | 29° |
| 2026-04-14 15:27 | 33.36003 | -8.24429 | 36173 ft | 444 kts | 29° |
| 2026-04-14 15:28 | 33.41227 | -8.20480 | 36176 ft | 444 kts | 29° |
| 2026-04-14 15:28 | 33.46422 | -8.16547 | 36178 ft | 443 kts | 29° |
| 2026-04-14 15:29 | 33.51643 | -8.12588 | 36179 ft | 443 kts | 29° |
| 2026-04-14 15:29 | 33.56859 | -8.08628 | 36186 ft | 443 kts | 29° |
| 2026-04-14 15:30 | 33.62069 | -8.04667 | 36186 ft | 443 kts | 29° |
| 2026-04-14 15:30 | 33.67248 | -8.00723 | 36190 ft | 443 kts | 29° |
| 2026-04-14 15:31 | 33.72465 | -7.96745 | 36195 ft | 442 kts | 29° |
| 2026-04-14 15:31 | 33.77653 | -7.92783 | 36198 ft | 442 kts | 29° |
| 2026-04-14 15:32 | 33.82830 | -7.88823 | 36198 ft | 442 kts | 29° |
| 2026-04-14 15:32 | 33.88025 | -7.84844 | 36203 ft | 442 kts | 29° |
| 2026-04-14 15:33 | 33.93226 | -7.80856 | 36203 ft | 442 kts | 29° |
| 2026-04-14 15:33 | 33.98394 | -7.76886 | 36217 ft | 442 kts | 29° |
| 2026-04-14 15:34 | 34.03567 | -7.72906 | 36212 ft | 441 kts | 29° |
| 2026-04-14 15:34 | 34.08743 | -7.68919 | 36211 ft | 441 kts | 29° |
| 2026-04-14 15:35 | 34.13918 | -7.64926 | 36213 ft | 441 kts | 29° |
| 2026-04-14 15:35 | 34.19091 | -7.60929 | 36221 ft | 441 kts | 29° |
| 2026-04-14 15:36 | 34.24214 | -7.56965 | 36215 ft | 437 kts | 29° |
| 2026-04-14 15:36 | 34.29335 | -7.52996 | 36217 ft | 437 kts | 29° |
| 2026-04-14 15:37 | 34.34470 | -7.49011 | 36216 ft | 437 kts | 29° |
| 2026-04-14 15:37 | 34.39575 | -7.45043 | 36225 ft | 437 kts | 29° |
| 2026-04-14 15:38 | 34.44696 | -7.41057 | 36218 ft | 437 kts | 29° |
| 2026-04-14 15:38 | 34.49787 | -7.37089 | 36218 ft | 437 kts | 29° |
| 2026-04-14 15:39 | 34.54917 | -7.33083 | 36223 ft | 437 kts | 29° |
| 2026-04-14 15:39 | 34.60044 | -7.29075 | 36218 ft | 437 kts | 29° |
| 2026-04-14 15:40 | 34.65129 | -7.25093 | 36229 ft | 438 kts | 29° |
| 2026-04-14 15:40 | 34.70255 | -7.21074 | 36249 ft | 437 kts | 29° |
| 2026-04-14 15:41 | 34.75351 | -7.17072 | 36226 ft | 434 kts | 29° |
| 2026-04-14 15:41 | 34.80402 | -7.13099 | 36227 ft | 435 kts | 29° |
| 2026-04-14 15:42 | 34.85493 | -7.09089 | 36223 ft | 435 kts | 29° |
| 2026-04-14 15:42 | 34.90584 | -7.05073 | 36222 ft | 435 kts | 29° |
| 2026-04-14 15:43 | 34.95640 | -7.01078 | 36223 ft | 435 kts | 29° |
| 2026-04-14 15:43 | 35.00729 | -6.97052 | 36222 ft | 435 kts | 29° |
| 2026-04-14 15:44 | 35.05817 | -6.93020 | 36230 ft | 435 kts | 29° |
| 2026-04-14 15:44 | 35.10869 | -6.89010 | 36219 ft | 435 kts | 29° |
| 2026-04-14 15:45 | 35.15959 | -6.84966 | 36218 ft | 435 kts | 29° |
| 2026-04-14 15:45 | 35.21000 | -6.80954 | 36215 ft | 432 kts | 29° |
| 2026-04-14 15:46 | 35.26035 | -6.76942 | 36218 ft | 432 kts | 29° |
| 2026-04-14 15:46 | 35.31081 | -6.72914 | 36216 ft | 432 kts | 29° |
| 2026-04-14 15:47 | 35.36133 | -6.68952 | 36212 ft | 435 kts | 28° |
| 2026-04-14 15:47 | 35.41280 | -6.64995 | 36214 ft | 436 kts | 28° |
| 2026-04-14 15:48 | 35.46418 | -6.61034 | 36214 ft | 436 kts | 28° |
| 2026-04-14 15:48 | 35.51559 | -6.57063 | 35819 ft | 433 kts | 28° |
| 2026-04-14 15:49 | 35.54106 | -6.55094 | 34808 ft | 441 kts | 28° |
| 2026-04-14 15:49 | 35.56721 | -6.53071 | 33984 ft | 444 kts | 28° |
| 2026-04-14 15:49 | 35.59317 | -6.51061 | 33401 ft | 439 kts | 28° |
| 2026-04-14 15:49 | 35.61883 | -6.49071 | 32954 ft | 432 kts | 28° |
| 2026-04-14 15:50 | 35.64412 | -6.47110 | 32478 ft | 425 kts | 28° |
| 2026-04-14 15:50 | 35.66904 | -6.45176 | 31948 ft | 420 kts | 28° |
| 2026-04-14 15:50 | 35.69340 | -6.43284 | 31387 ft | 416 kts | 28° |
| 2026-04-14 15:50 | 35.71771 | -6.41394 | 30869 ft | 412 kts | 28° |
| 2026-04-14 15:51 | 35.74187 | -6.39515 | 30356 ft | 409 kts | 28° |
| 2026-04-14 15:51 | 35.76583 | -6.37649 | 29770 ft | 406 kts | 28° |
| 2026-04-14 15:51 | 35.78974 | -6.35787 | 29231 ft | 403 kts | 28° |
| 2026-04-14 15:51 | 35.81310 | -6.33967 | 28743 ft | 400 kts | 28° |
| 2026-04-14 15:52 | 35.83665 | -6.32067 | 28210 ft | 399 kts | 31° |
| 2026-04-14 15:52 | 35.85902 | -6.30139 | 27704 ft | 395 kts | 30° |
| 2026-04-14 15:52 | 35.88158 | -6.28208 | 27266 ft | 394 kts | 30° |
| 2026-04-14 15:52 | 35.90414 | -6.26283 | 26790 ft | 391 kts | 30° |
| 2026-04-14 15:53 | 35.92639 | -6.24384 | 26322 ft | 389 kts | 30° |
| 2026-04-14 15:53 | 35.94857 | -6.22490 | 25853 ft | 386 kts | 30° |
| 2026-04-14 15:53 | 35.97072 | -6.20599 | 25390 ft | 384 kts | 30° |
| 2026-04-14 15:53 | 35.99234 | -6.18751 | 24944 ft | 382 kts | 30° |
| 2026-04-14 15:54 | 36.03586 | -6.15028 | 24050 ft | 377 kts | 30° |
| 2026-04-14 15:54 | 36.05745 | -6.13179 | 23593 ft | 375 kts | 30° |
| 2026-04-14 15:54 | 36.07887 | -6.11344 | 23083 ft | 373 kts | 31° |
| 2026-04-14 15:55 | 36.09988 | -6.09542 | 22661 ft | 370 kts | 31° |
| 2026-04-14 15:55 | 36.12105 | -6.07725 | 22246 ft | 369 kts | 31° |
| 2026-04-14 15:55 | 36.14208 | -6.05920 | 21823 ft | 368 kts | 31° |
| 2026-04-14 15:55 | 36.16307 | -6.04116 | 21418 ft | 366 kts | 31° |
| 2026-04-14 15:56 | 36.18397 | -6.02320 | 21005 ft | 363 kts | 31° |
| 2026-04-14 15:56 | 36.20469 | -6.00537 | 20607 ft | 361 kts | 31° |
| 2026-04-14 15:56 | 36.22511 | -5.98802 | 20202 ft | 358 kts | 28° |
| 2026-04-14 15:56 | 36.24791 | -5.97662 | 19744 ft | 352 kts | 8° |
| 2026-04-14 15:57 | 36.27206 | -5.97250 | 19400 ft | 348 kts | 5° |
| 2026-04-14 15:57 | 36.29606 | -5.96879 | 19034 ft | 346 kts | 5° |
| 2026-04-14 15:57 | 36.31996 | -5.96535 | 18660 ft | 345 kts | 5° |
| 2026-04-14 15:57 | 36.34377 | -5.96207 | 18264 ft | 343 kts | 5° |
| 2026-04-14 15:58 | 36.36717 | -5.95894 | 17868 ft | 341 kts | 4° |
| 2026-04-14 15:58 | 36.39077 | -5.95583 | 17490 ft | 339 kts | 5° |
| 2026-04-14 15:58 | 36.41419 | -5.95276 | 17122 ft | 337 kts | 5° |
| 2026-04-14 15:58 | 36.43756 | -5.94971 | 16754 ft | 335 kts | 5° |
| 2026-04-14 15:59 | 36.46070 | -5.94669 | 16402 ft | 333 kts | 5° |
| 2026-04-14 15:59 | 36.48344 | -5.94375 | 16044 ft | 331 kts | 4° |
| 2026-04-14 15:59 | 36.50626 | -5.94566 | 15616 ft | 329 kts | 347° |
| 2026-04-14 15:59 | 36.52864 | -5.95145 | 15284 ft | 327 kts | 348° |
| 2026-04-14 16:00 | 36.54345 | -5.95518 | 15056 ft | 326 kts | 348° |
| 2026-04-14 16:00 | 36.57282 | -5.96273 | 14607 ft | 324 kts | 348° |
| 2026-04-14 16:00 | 36.58765 | -5.96659 | 14375 ft | 323 kts | 348° |
| 2026-04-14 16:00 | 36.61678 | -5.97422 | 13905 ft | 321 kts | 348° |
| 2026-04-14 16:01 | 36.63129 | -5.97803 | 13640 ft | 321 kts | 348° |
| 2026-04-14 16:01 | 36.65313 | -5.98378 | 13265 ft | 319 kts | 348° |
| 2026-04-14 16:01 | 36.67483 | -5.98949 | 12911 ft | 317 kts | 348° |
| 2026-04-14 16:01 | 36.69645 | -5.99518 | 12564 ft | 316 kts | 348° |
| 2026-04-14 16:02 | 36.71790 | -6.00084 | 12223 ft | 314 kts | 348° |
| 2026-04-14 16:02 | 36.73922 | -6.00646 | 11886 ft | 313 kts | 349° |
| 2026-04-14 16:02 | 36.76029 | -6.01202 | 11544 ft | 313 kts | 349° |
| 2026-04-14 16:02 | 36.78160 | -6.01765 | 11203 ft | 312 kts | 349° |
| 2026-04-14 16:03 | 36.80277 | -6.02324 | 10926 ft | 308 kts | 349° |
| 2026-04-14 16:03 | 36.82366 | -6.02760 | 10757 ft | 300 kts | 355° |
| 2026-04-14 16:03 | 36.84417 | -6.03041 | 10630 ft | 291 kts | 354° |
| 2026-04-14 16:03 | 36.86382 | -6.03323 | 10495 ft | 283 kts | 354° |
| 2026-04-14 16:04 | 36.88310 | -6.03608 | 10364 ft | 275 kts | 354° |
| 2026-04-14 16:04 | 36.90190 | -6.03889 | 10218 ft | 269 kts | 354° |
| 2026-04-14 16:04 | 36.92054 | -6.04171 | 9935 ft | 269 kts | 354° |
| 2026-04-14 16:04 | 36.93910 | -6.04454 | 9615 ft | 268 kts | 354° |
| 2026-04-14 16:05 | 36.95753 | -6.04735 | 9316 ft | 266 kts | 354° |
| 2026-04-14 16:05 | 36.97565 | -6.05011 | 9031 ft | 264 kts | 354° |
| 2026-04-14 16:05 | 36.99387 | -6.05290 | 8686 ft | 264 kts | 354° |
| 2026-04-14 16:05 | 37.01223 | -6.05570 | 8345 ft | 264 kts | 354° |
| 2026-04-14 16:06 | 37.03045 | -6.05849 | 8047 ft | 262 kts | 354° |
| 2026-04-14 16:06 | 37.04829 | -6.06122 | 7756 ft | 261 kts | 354° |
| 2026-04-14 16:06 | 37.06628 | -6.06397 | 7478 ft | 260 kts | 354° |
| 2026-04-14 16:06 | 37.08422 | -6.06672 | 7187 ft | 259 kts | 353° |
| 2026-04-14 16:07 | 37.10215 | -6.06947 | 6912 ft | 257 kts | 353° |
| 2026-04-14 16:07 | 37.11984 | -6.07218 | 6642 ft | 256 kts | 353° |
| 2026-04-14 16:07 | 37.13756 | -6.07489 | 6354 ft | 255 kts | 353° |
| 2026-04-14 16:07 | 37.15518 | -6.07759 | 6067 ft | 254 kts | 353° |
| 2026-04-14 16:08 | 37.17268 | -6.08028 | 5789 ft | 252 kts | 353° |
| 2026-04-14 16:08 | 37.19008 | -6.08295 | 5512 ft | 251 kts | 353° |
| 2026-04-14 16:08 | 37.20735 | -6.08560 | 5277 ft | 248 kts | 353° |
| 2026-04-14 16:08 | 37.22424 | -6.08820 | 5078 ft | 248 kts | 353° |
| 2026-04-14 16:09 | 37.24140 | -6.09083 | 4850 ft | 248 kts | 353° |
| 2026-04-14 16:09 | 37.25851 | -6.09345 | 4593 ft | 247 kts | 354° |
| 2026-04-14 16:09 | 37.27566 | -6.09606 | 4316 ft | 246 kts | 353° |
| 2026-04-14 16:09 | 37.29242 | -6.09860 | 4178 ft | 239 kts | 353° |
| 2026-04-14 16:10 | 37.30866 | -6.10107 | 4061 ft | 231 kts | 353° |
| 2026-04-14 16:10 | 37.32420 | -6.10344 | 3946 ft | 224 kts | 353° |
| 2026-04-14 16:10 | 37.33942 | -6.10574 | 3801 ft | 217 kts | 353° |
| 2026-04-14 16:10 | 37.35440 | -6.10803 | 3699 ft | 217 kts | 353° |
| 2026-04-14 16:11 | 37.36939 | -6.11030 | 3577 ft | 216 kts | 353° |
| 2026-04-14 16:11 | 37.38435 | -6.11259 | 3449 ft | 216 kts | 353° |
| 2026-04-14 16:11 | 37.39926 | -6.11156 | 3179 ft | 218 kts | 19° |
| 2026-04-14 16:11 | 37.41162 | -6.10127 | 2944 ft | 215 kts | 49° |
| 2026-04-14 16:12 | 37.41801 | -6.08438 | 2733 ft | 213 kts | 79° |
| 2026-04-14 16:12 | 37.41787 | -6.06659 | 2518 ft | 197 kts | 92° |
| 2026-04-14 16:12 | 37.41733 | -6.04992 | 2248 ft | 185 kts | 88° |
| 2026-04-14 16:12 | 37.41736 | -6.03452 | 2041 ft | 168 kts | 88° |
| 2026-04-14 16:13 | 37.41745 | -6.02035 | 1805 ft | 155 kts | 88° |
| 2026-04-14 16:13 | 37.41751 | -6.00692 | 1605 ft | 152 kts | 88° |
| 2026-04-14 16:13 | 37.41755 | -5.99362 | 1395 ft | 151 kts | 88° |
| 2026-04-14 16:13 | 37.41761 | -5.98037 | 1210 ft | 152 kts | 87° |
| 2026-04-14 16:14 | 37.41766 | -5.96713 | 962 ft | 151 kts | 89° |
| 2026-04-14 16:14 | 37.41778 | -5.95409 | 765 ft | 152 kts | 88° |
| 2026-04-14 16:14 | 37.41793 | -5.94061 | 608 ft | 155 kts | 89° |
| 2026-04-14 16:14 | 37.41802 | -5.92718 | 390 ft | 152 kts | 89° |
| 2026-04-14 16:15 | 37.41794 | -5.91371 | 165 ft | 154 kts | 90° |
| 2026-04-14 16:15 | 37.41793 | -5.90086 | 100 ft | 123 kts | 90° |
| 2026-04-14 16:15 | 37.41796 | -5.89370 | 102 ft | 40 kts | 90° |
| 2026-04-14 16:15 | 37.41835 | -5.89249 | 102 ft | 10 kts | 342° |
| 2026-04-14 16:16 | 37.41911 | -5.89306 | 101 ft | 14 kts | 328° |
| 2026-04-14 16:16 | 37.42000 | -5.89377 | 101 ft | 16 kts | 321° |
| 2026-04-14 16:16 | 37.42084 | -5.89491 | 101 ft | 19 kts | 316° |
| 2026-04-14 16:16 | 37.42174 | -5.89603 | 98 ft | 17 kts | 314° |
| 2026-04-14 16:17 | 37.42257 | -5.89716 | 96 ft | 15 kts | 301° |
| 2026-04-14 16:17 | 37.42276 | -5.89810 | 97 ft | 8 kts | 313° |
| 2026-04-14 16:17 | 37.42302 | -5.89842 | 97 ft | 2 kts | 315° |
| 2026-04-14 16:17 | 37.42303 | -5.89843 | 97 ft | 0 kts | 315° |